sensor_id;sensor_type;location;lat;lon;timestamp;P1;durP1;ratioP1;P2;durP2;ratioP2
14584;SDS011;7379;51.506;11.876;2023-02-26T00:02:08;2.70;;;2.00;;
14584;SDS011;7379;51.506;11.876;2023-02-26T00:04:35;5.17;;;2.23;;
14584;SDS011;7379;51.506;11.876;2023-02-26T00:07:03;2.87;;;2.10;;
14584;SDS011;7379;51.506;11.876;2023-02-26T00:09:30;3.50;;;2.10;;
14584;SDS011;7379;51.506;11.876;2023-02-26T00:11:57;2.47;;;1.87;;
14584;SDS011;7379;51.506;11.876;2023-02-26T00:14:25;3.97;;;1.80;;
14584;SDS011;7379;51.506;11.876;2023-02-26T00:16:55;3.07;;;1.90;;
14584;SDS011;7379;51.506;11.876;2023-02-26T00:19:34;3.33;;;1.90;;
14584;SDS011;7379;51.506;11.876;2023-02-26T00:22:03;3.40;;;1.93;;
14584;SDS011;7379;51.506;11.876;2023-02-26T00:24:30;2.37;;;1.80;;
14584;SDS011;7379;51.506;11.876;2023-02-26T00:26:57;3.10;;;2.03;;
14584;SDS011;7379;51.506;11.876;2023-02-26T00:29:24;2.90;;;1.90;;
14584;SDS011;7379;51.506;11.876;2023-02-26T00:31:52;2.13;;;1.80;;
14584;SDS011;7379;51.506;11.876;2023-02-26T00:34:19;4.40;;;2.27;;
14584;SDS011;7379;51.506;11.876;2023-02-26T00:36:49;2.03;;;1.80;;
14584;SDS011;7379;51.506;11.876;2023-02-26T00:39:27;3.47;;;1.93;;
14584;SDS011;7379;51.506;11.876;2023-02-26T00:42:02;3.67;;;1.90;;
14584;SDS011;7379;51.506;11.876;2023-02-26T00:44:29;1.97;;;1.80;;
14584;SDS011;7379;51.506;11.876;2023-02-26T00:46:58;2.30;;;1.90;;
14584;SDS011;7379;51.506;11.876;2023-02-26T00:49:32;4.77;;;2.20;;
14584;SDS011;7379;51.506;11.876;2023-02-26T00:52:16;4.43;;;2.20;;
14584;SDS011;7379;51.506;11.876;2023-02-26T00:54:50;3.70;;;2.10;;
14584;SDS011;7379;51.506;11.876;2023-02-26T00:57:17;2.90;;;2.00;;
14584;SDS011;7379;51.506;11.876;2023-02-26T00:59:44;2.33;;;1.87;;
14584;SDS011;7379;51.506;11.876;2023-02-26T01:02:11;4.63;;;2.70;;
14584;SDS011;7379;51.506;11.876;2023-02-26T01:04:38;2.57;;;2.00;;
14584;SDS011;7379;51.506;11.876;2023-02-26T01:07:06;3.70;;;2.00;;
14584;SDS011;7379;51.506;11.876;2023-02-26T01:09:35;2.53;;;2.13;;
14584;SDS011;7379;51.506;11.876;2023-02-26T01:12:05;3.83;;;2.10;;
14584;SDS011;7379;51.506;11.876;2023-02-26T01:14:34;3.43;;;1.97;;
14584;SDS011;7379;51.506;11.876;2023-02-26T01:17:03;3.47;;;2.07;;
14584;SDS011;7379;51.506;11.876;2023-02-26T01:19:37;4.23;;;2.10;;
14584;SDS011;7379;51.506;11.876;2023-02-26T01:22:10;4.57;;;2.20;;
14584;SDS011;7379;51.506;11.876;2023-02-26T01:24:42;2.57;;;2.00;;
14584;SDS011;7379;51.506;11.876;2023-02-26T01:27:10;3.70;;;1.90;;
14584;SDS011;7379;51.506;11.876;2023-02-26T01:29:37;3.23;;;2.03;;
14584;SDS011;7379;51.506;11.876;2023-02-26T01:32:05;3.27;;;2.30;;
14584;SDS011;7379;51.506;11.876;2023-02-26T01:34:41;3.10;;;2.00;;
14584;SDS011;7379;51.506;11.876;2023-02-26T01:37:20;2.43;;;1.90;;
14584;SDS011;7379;51.506;11.876;2023-02-26T01:39:55;2.90;;;2.00;;
14584;SDS011;7379;51.506;11.876;2023-02-26T01:42:31;2.90;;;2.10;;
14584;SDS011;7379;51.506;11.876;2023-02-26T01:45:03;4.23;;;2.17;;
14584;SDS011;7379;51.506;11.876;2023-02-26T01:47:38;2.43;;;2.23;;
14584;SDS011;7379;51.506;11.876;2023-02-26T01:50:11;3.17;;;2.10;;
14584;SDS011;7379;51.506;11.876;2023-02-26T01:55:48;2.47;;;2.20;;
14584;SDS011;7379;51.506;11.876;2023-02-26T01:58:19;2.57;;;2.13;;
14584;SDS011;7379;51.506;11.876;2023-02-26T02:00:47;4.17;;;2.40;;
14584;SDS011;7379;51.506;11.876;2023-02-26T02:03:16;3.97;;;2.10;;
14584;SDS011;7379;51.506;11.876;2023-02-26T02:05:44;3.77;;;2.40;;
14584;SDS011;7379;51.506;11.876;2023-02-26T02:08:14;2.80;;;2.10;;
14584;SDS011;7379;51.506;11.876;2023-02-26T02:10:41;2.47;;;2.07;;
14584;SDS011;7379;51.506;11.876;2023-02-26T02:13:12;2.63;;;2.10;;
14584;SDS011;7379;51.506;11.876;2023-02-26T02:15:48;3.17;;;2.07;;
14584;SDS011;7379;51.506;11.876;2023-02-26T02:18:23;3.23;;;2.00;;
14584;SDS011;7379;51.506;11.876;2023-02-26T02:23:54;3.93;;;2.27;;
14584;SDS011;7379;51.506;11.876;2023-02-26T02:29:31;3.33;;;2.07;;
14584;SDS011;7379;51.506;11.876;2023-02-26T02:32:21;2.40;;;2.03;;
14584;SDS011;7379;51.506;11.876;2023-02-26T02:34:54;2.43;;;2.23;;
14584;SDS011;7379;51.506;11.876;2023-02-26T02:37:28;3.37;;;2.10;;
14584;SDS011;7379;51.506;11.876;2023-02-26T02:40:00;2.27;;;2.03;;
14584;SDS011;7379;51.506;11.876;2023-02-26T02:42:30;5.10;;;2.20;;
14584;SDS011;7379;51.506;11.876;2023-02-26T02:45:02;3.87;;;2.20;;
14584;SDS011;7379;51.506;11.876;2023-02-26T02:47:35;3.93;;;2.20;;
14584;SDS011;7379;51.506;11.876;2023-02-26T02:50:06;2.77;;;2.37;;
14584;SDS011;7379;51.506;11.876;2023-02-26T02:52:39;2.10;;;1.90;;
14584;SDS011;7379;51.506;11.876;2023-02-26T02:55:10;3.60;;;2.23;;
14584;SDS011;7379;51.506;11.876;2023-02-26T02:57:42;2.30;;;2.10;;
14584;SDS011;7379;51.506;11.876;2023-02-26T03:00:12;4.03;;;2.20;;
14584;SDS011;7379;51.506;11.876;2023-02-26T03:02:45;3.83;;;1.97;;
14584;SDS011;7379;51.506;11.876;2023-02-26T03:05:16;4.17;;;2.33;;
14584;SDS011;7379;51.506;11.876;2023-02-26T03:07:45;5.00;;;2.30;;
14584;SDS011;7379;51.506;11.876;2023-02-26T03:10:16;3.47;;;2.20;;
14584;SDS011;7379;51.506;11.876;2023-02-26T03:12:42;2.87;;;2.20;;
14584;SDS011;7379;51.506;11.876;2023-02-26T03:15:10;4.23;;;2.30;;
14584;SDS011;7379;51.506;11.876;2023-02-26T03:17:39;4.23;;;2.27;;
14584;SDS011;7379;51.506;11.876;2023-02-26T03:20:18;4.07;;;1.93;;
14584;SDS011;7379;51.506;11.876;2023-02-26T03:22:52;2.63;;;2.17;;
14584;SDS011;7379;51.506;11.876;2023-02-26T03:25:29;3.43;;;2.20;;
14584;SDS011;7379;51.506;11.876;2023-02-26T03:28:05;2.80;;;2.00;;
14584;SDS011;7379;51.506;11.876;2023-02-26T03:30:36;3.00;;;2.10;;
14584;SDS011;7379;51.506;11.876;2023-02-26T03:33:07;3.40;;;2.20;;
14584;SDS011;7379;51.506;11.876;2023-02-26T03:35:42;2.30;;;2.10;;
14584;SDS011;7379;51.506;11.876;2023-02-26T03:38:14;2.43;;;1.90;;
14584;SDS011;7379;51.506;11.876;2023-02-26T03:40:49;2.87;;;1.80;;
14584;SDS011;7379;51.506;11.876;2023-02-26T03:43:21;2.63;;;1.90;;
14584;SDS011;7379;51.506;11.876;2023-02-26T03:45:52;2.83;;;1.90;;
14584;SDS011;7379;51.506;11.876;2023-02-26T03:48:24;2.40;;;2.00;;
14584;SDS011;7379;51.506;11.876;2023-02-26T03:50:56;2.67;;;1.90;;
14584;SDS011;7379;51.506;11.876;2023-02-26T03:53:29;2.07;;;1.80;;
14584;SDS011;7379;51.506;11.876;2023-02-26T03:56:00;3.60;;;2.00;;
14584;SDS011;7379;51.506;11.876;2023-02-26T03:58:31;2.87;;;1.70;;
14584;SDS011;7379;51.506;11.876;2023-02-26T04:01:05;2.67;;;1.80;;
14584;SDS011;7379;51.506;11.876;2023-02-26T04:03:36;3.33;;;1.90;;
14584;SDS011;7379;51.506;11.876;2023-02-26T04:06:07;2.90;;;1.93;;
14584;SDS011;7379;51.506;11.876;2023-02-26T04:08:34;2.87;;;1.80;;
14584;SDS011;7379;51.506;11.876;2023-02-26T04:11:03;2.77;;;1.97;;
14584;SDS011;7379;51.506;11.876;2023-02-26T04:13:33;2.13;;;1.93;;
14584;SDS011;7379;51.506;11.876;2023-02-26T04:16:00;2.37;;;1.63;;
14584;SDS011;7379;51.506;11.876;2023-02-26T04:18:27;2.27;;;1.80;;
14584;SDS011;7379;51.506;11.876;2023-02-26T04:20:55;2.10;;;1.90;;
14584;SDS011;7379;51.506;11.876;2023-02-26T04:23:21;2.70;;;1.80;;
14584;SDS011;7379;51.506;11.876;2023-02-26T04:25:48;2.00;;;1.80;;
14584;SDS011;7379;51.506;11.876;2023-02-26T04:28:15;4.33;;;1.80;;
14584;SDS011;7379;51.506;11.876;2023-02-26T04:30:42;2.80;;;1.87;;
14584;SDS011;7379;51.506;11.876;2023-02-26T04:33:09;2.70;;;1.80;;
14584;SDS011;7379;51.506;11.876;2023-02-26T04:35:37;2.10;;;1.63;;
14584;SDS011;7379;51.506;11.876;2023-02-26T04:38:05;1.60;;;1.50;;
14584;SDS011;7379;51.506;11.876;2023-02-26T04:40:32;2.67;;;1.80;;
14584;SDS011;7379;51.506;11.876;2023-02-26T04:42:59;2.70;;;1.60;;
14584;SDS011;7379;51.506;11.876;2023-02-26T04:45:27;3.43;;;1.70;;
14584;SDS011;7379;51.506;11.876;2023-02-26T04:47:54;4.30;;;2.00;;
14584;SDS011;7379;51.506;11.876;2023-02-26T04:50:20;4.23;;;1.90;;
14584;SDS011;7379;51.506;11.876;2023-02-26T04:52:47;2.00;;;1.70;;
14584;SDS011;7379;51.506;11.876;2023-02-26T04:55:16;3.87;;;2.10;;
14584;SDS011;7379;51.506;11.876;2023-02-26T04:57:42;1.80;;;1.70;;
14584;SDS011;7379;51.506;11.876;2023-02-26T05:00:10;2.13;;;1.83;;
14584;SDS011;7379;51.506;11.876;2023-02-26T05:02:37;2.67;;;1.70;;
14584;SDS011;7379;51.506;11.876;2023-02-26T05:05:04;2.20;;;1.80;;
14584;SDS011;7379;51.506;11.876;2023-02-26T05:07:31;3.33;;;1.80;;
14584;SDS011;7379;51.506;11.876;2023-02-26T05:09:58;2.70;;;1.90;;
14584;SDS011;7379;51.506;11.876;2023-02-26T05:12:26;2.03;;;1.63;;
14584;SDS011;7379;51.506;11.876;2023-02-26T05:14:53;2.90;;;1.80;;
14584;SDS011;7379;51.506;11.876;2023-02-26T05:17:20;2.57;;;1.57;;
14584;SDS011;7379;51.506;11.876;2023-02-26T05:19:46;3.03;;;1.60;;
14584;SDS011;7379;51.506;11.876;2023-02-26T05:22:13;2.13;;;1.80;;
14584;SDS011;7379;51.506;11.876;2023-02-26T05:24:41;2.90;;;1.90;;
14584;SDS011;7379;51.506;11.876;2023-02-26T05:27:08;2.40;;;1.80;;
14584;SDS011;7379;51.506;11.876;2023-02-26T05:29:36;3.53;;;1.70;;
14584;SDS011;7379;51.506;11.876;2023-02-26T05:32:05;2.97;;;1.90;;
14584;SDS011;7379;51.506;11.876;2023-02-26T05:34:31;2.73;;;1.90;;
14584;SDS011;7379;51.506;11.876;2023-02-26T05:36:58;2.67;;;1.77;;
14584;SDS011;7379;51.506;11.876;2023-02-26T05:39:25;3.17;;;1.70;;
14584;SDS011;7379;51.506;11.876;2023-02-26T05:41:52;1.87;;;1.60;;
14584;SDS011;7379;51.506;11.876;2023-02-26T05:44:20;2.20;;;2.00;;
14584;SDS011;7379;51.506;11.876;2023-02-26T05:46:49;1.70;;;1.60;;
14584;SDS011;7379;51.506;11.876;2023-02-26T05:49:16;3.07;;;1.93;;
14584;SDS011;7379;51.506;11.876;2023-02-26T05:51:43;2.57;;;1.80;;
14584;SDS011;7379;51.506;11.876;2023-02-26T05:54:09;2.07;;;1.77;;
14584;SDS011;7379;51.506;11.876;2023-02-26T05:56:36;2.03;;;1.63;;
14584;SDS011;7379;51.506;11.876;2023-02-26T05:59:03;4.13;;;1.80;;
14584;SDS011;7379;51.506;11.876;2023-02-26T06:01:30;1.93;;;1.57;;
14584;SDS011;7379;51.506;11.876;2023-02-26T06:03:58;2.33;;;1.70;;
14584;SDS011;7379;51.506;11.876;2023-02-26T06:06:25;2.73;;;1.60;;
14584;SDS011;7379;51.506;11.876;2023-02-26T06:08:51;2.70;;;1.87;;
14584;SDS011;7379;51.506;11.876;2023-02-26T06:11:18;2.30;;;1.80;;
14584;SDS011;7379;51.506;11.876;2023-02-26T06:13:45;2.53;;;2.00;;
14584;SDS011;7379;51.506;11.876;2023-02-26T06:16:12;3.20;;;2.00;;
14584;SDS011;7379;51.506;11.876;2023-02-26T06:18:39;2.73;;;2.00;;
14584;SDS011;7379;51.506;11.876;2023-02-26T06:21:07;2.83;;;2.00;;
14584;SDS011;7379;51.506;11.876;2023-02-26T06:23:34;2.53;;;2.00;;
14584;SDS011;7379;51.506;11.876;2023-02-26T06:26:00;4.23;;;2.07;;
14584;SDS011;7379;51.506;11.876;2023-02-26T06:28:27;3.37;;;1.90;;
14584;SDS011;7379;51.506;11.876;2023-02-26T06:30:54;3.10;;;2.00;;
14584;SDS011;7379;51.506;11.876;2023-02-26T06:33:21;2.57;;;2.00;;
14584;SDS011;7379;51.506;11.876;2023-02-26T06:35:48;2.70;;;2.13;;
14584;SDS011;7379;51.506;11.876;2023-02-26T06:38:16;2.80;;;2.00;;
14584;SDS011;7379;51.506;11.876;2023-02-26T06:40:44;2.87;;;2.10;;
14584;SDS011;7379;51.506;11.876;2023-02-26T06:43:12;2.10;;;1.90;;
14584;SDS011;7379;51.506;11.876;2023-02-26T06:45:39;2.93;;;2.20;;
14584;SDS011;7379;51.506;11.876;2023-02-26T06:48:05;4.70;;;2.10;;
14584;SDS011;7379;51.506;11.876;2023-02-26T06:50:32;2.90;;;2.00;;
14584;SDS011;7379;51.506;11.876;2023-02-26T06:52:59;4.50;;;2.40;;
14584;SDS011;7379;51.506;11.876;2023-02-26T06:55:27;3.37;;;2.50;;
14584;SDS011;7379;51.506;11.876;2023-02-26T06:57:54;2.87;;;2.40;;
14584;SDS011;7379;51.506;11.876;2023-02-26T07:00:22;2.80;;;2.50;;
14584;SDS011;7379;51.506;11.876;2023-02-26T07:02:50;4.37;;;2.70;;
14584;SDS011;7379;51.506;11.876;2023-02-26T07:05:18;4.07;;;2.60;;
14584;SDS011;7379;51.506;11.876;2023-02-26T07:07:45;4.10;;;2.40;;
14584;SDS011;7379;51.506;11.876;2023-02-26T07:10:11;3.47;;;2.40;;
14584;SDS011;7379;51.506;11.876;2023-02-26T07:12:40;4.57;;;2.20;;
14584;SDS011;7379;51.506;11.876;2023-02-26T07:15:07;3.23;;;2.30;;
14584;SDS011;7379;51.506;11.876;2023-02-26T07:17:34;4.03;;;2.20;;
14584;SDS011;7379;51.506;11.876;2023-02-26T07:20:01;4.03;;;2.37;;
14584;SDS011;7379;51.506;11.876;2023-02-26T07:22:34;2.93;;;2.30;;
14584;SDS011;7379;51.506;11.876;2023-02-26T07:25:01;3.80;;;2.40;;
14584;SDS011;7379;51.506;11.876;2023-02-26T07:27:28;2.40;;;2.13;;
14584;SDS011;7379;51.506;11.876;2023-02-26T07:29:56;5.30;;;2.43;;
14584;SDS011;7379;51.506;11.876;2023-02-26T07:32:23;2.53;;;2.03;;
14584;SDS011;7379;51.506;11.876;2023-02-26T07:34:50;3.07;;;2.40;;
14584;SDS011;7379;51.506;11.876;2023-02-26T07:37:17;2.40;;;2.00;;
14584;SDS011;7379;51.506;11.876;2023-02-26T07:39:44;2.33;;;2.10;;
14584;SDS011;7379;51.506;11.876;2023-02-26T07:42:10;2.90;;;2.10;;
14584;SDS011;7379;51.506;11.876;2023-02-26T07:44:38;2.77;;;2.00;;
14584;SDS011;7379;51.506;11.876;2023-02-26T07:47:06;2.93;;;2.03;;
14584;SDS011;7379;51.506;11.876;2023-02-26T07:49:33;2.77;;;1.90;;
14584;SDS011;7379;51.506;11.876;2023-02-26T07:51:59;2.47;;;1.90;;
14584;SDS011;7379;51.506;11.876;2023-02-26T07:54:26;2.70;;;1.90;;
14584;SDS011;7379;51.506;11.876;2023-02-26T07:56:53;3.23;;;2.10;;
14584;SDS011;7379;51.506;11.876;2023-02-26T07:59:20;3.33;;;1.93;;
14584;SDS011;7379;51.506;11.876;2023-02-26T08:01:47;3.13;;;1.90;;
14584;SDS011;7379;51.506;11.876;2023-02-26T08:04:15;3.20;;;1.90;;
14584;SDS011;7379;51.506;11.876;2023-02-26T08:06:42;2.97;;;1.77;;
14584;SDS011;7379;51.506;11.876;2023-02-26T08:09:10;3.50;;;1.87;;
14584;SDS011;7379;51.506;11.876;2023-02-26T08:11:36;1.80;;;1.70;;
14584;SDS011;7379;51.506;11.876;2023-02-26T08:14:03;3.17;;;1.90;;
14584;SDS011;7379;51.506;11.876;2023-02-26T08:16:30;1.80;;;1.70;;
14584;SDS011;7379;51.506;11.876;2023-02-26T08:18:57;4.40;;;2.17;;
14584;SDS011;7379;51.506;11.876;2023-02-26T08:21:26;2.23;;;2.00;;
14584;SDS011;7379;51.506;11.876;2023-02-26T08:23:53;3.77;;;2.03;;
14584;SDS011;7379;51.506;11.876;2023-02-26T08:26:20;4.13;;;2.30;;
14584;SDS011;7379;51.506;11.876;2023-02-26T08:28:47;4.97;;;2.13;;
14584;SDS011;7379;51.506;11.876;2023-02-26T08:31:14;2.83;;;2.00;;
14584;SDS011;7379;51.506;11.876;2023-02-26T08:33:41;2.73;;;2.20;;
14584;SDS011;7379;51.506;11.876;2023-02-26T08:36:09;2.93;;;2.10;;
14584;SDS011;7379;51.506;11.876;2023-02-26T08:38:37;2.40;;;2.00;;
14584;SDS011;7379;51.506;11.876;2023-02-26T08:41:04;2.50;;;1.97;;
14584;SDS011;7379;51.506;11.876;2023-02-26T08:43:32;4.77;;;2.07;;
14584;SDS011;7379;51.506;11.876;2023-02-26T08:45:59;2.93;;;1.90;;
14584;SDS011;7379;51.506;11.876;2023-02-26T08:48:26;3.73;;;1.93;;
14584;SDS011;7379;51.506;11.876;2023-02-26T08:50:53;3.27;;;1.87;;
14584;SDS011;7379;51.506;11.876;2023-02-26T08:53:20;2.43;;;2.00;;
14584;SDS011;7379;51.506;11.876;2023-02-26T08:55:48;2.87;;;1.90;;
14584;SDS011;7379;51.506;11.876;2023-02-26T08:58:16;2.67;;;1.93;;
14584;SDS011;7379;51.506;11.876;2023-02-26T09:00:44;2.67;;;1.93;;
14584;SDS011;7379;51.506;11.876;2023-02-26T09:03:12;1.80;;;1.63;;
14584;SDS011;7379;51.506;11.876;2023-02-26T09:05:39;2.20;;;1.90;;
14584;SDS011;7379;51.506;11.876;2023-02-26T09:08:05;3.03;;;1.87;;
14584;SDS011;7379;51.506;11.876;2023-02-26T09:10:33;2.77;;;2.00;;
14584;SDS011;7379;51.506;11.876;2023-02-26T09:13:01;2.33;;;1.70;;
14584;SDS011;7379;51.506;11.876;2023-02-26T09:15:28;2.63;;;1.90;;
14584;SDS011;7379;51.506;11.876;2023-02-26T09:17:55;2.37;;;1.80;;
14584;SDS011;7379;51.506;11.876;2023-02-26T09:20:22;2.17;;;1.90;;
14584;SDS011;7379;51.506;11.876;2023-02-26T09:22:48;2.70;;;2.00;;
14584;SDS011;7379;51.506;11.876;2023-02-26T09:25:15;1.97;;;1.77;;
14584;SDS011;7379;51.506;11.876;2023-02-26T09:27:42;2.60;;;2.00;;
14584;SDS011;7379;51.506;11.876;2023-02-26T09:30:11;2.27;;;1.90;;
14584;SDS011;7379;51.506;11.876;2023-02-26T09:32:39;2.53;;;1.73;;
14584;SDS011;7379;51.506;11.876;2023-02-26T09:35:06;2.20;;;1.80;;
14584;SDS011;7379;51.506;11.876;2023-02-26T09:37:33;3.20;;;1.80;;
14584;SDS011;7379;51.506;11.876;2023-02-26T09:40:00;4.27;;;2.00;;
14584;SDS011;7379;51.506;11.876;2023-02-26T09:42:30;4.40;;;2.63;;
14584;SDS011;7379;51.506;11.876;2023-02-26T09:45:23;10.70;;;3.40;;
14584;SDS011;7379;51.506;11.876;2023-02-26T09:47:56;10.80;;;3.57;;
14584;SDS011;7379;51.506;11.876;2023-02-26T09:50:24;10.93;;;3.90;;
14584;SDS011;7379;51.506;11.876;2023-02-26T09:52:58;11.07;;;4.00;;
14584;SDS011;7379;51.506;11.876;2023-02-26T09:55:29;9.17;;;4.13;;
14584;SDS011;7379;51.506;11.876;2023-02-26T09:58:00;12.17;;;4.50;;
14584;SDS011;7379;51.506;11.876;2023-02-26T10:00:33;9.00;;;4.20;;
14584;SDS011;7379;51.506;11.876;2023-02-26T10:03:08;10.93;;;4.50;;
14584;SDS011;7379;51.506;11.876;2023-02-26T10:05:44;8.97;;;3.87;;
14584;SDS011;7379;51.506;11.876;2023-02-26T10:08:21;8.73;;;3.83;;
14584;SDS011;7379;51.506;11.876;2023-02-26T10:10:54;8.40;;;3.50;;
14584;SDS011;7379;51.506;11.876;2023-02-26T10:13:28;6.27;;;3.60;;
14584;SDS011;7379;51.506;11.876;2023-02-26T10:16:04;5.67;;;3.10;;
14584;SDS011;7379;51.506;11.876;2023-02-26T10:18:37;5.87;;;2.90;;
14584;SDS011;7379;51.506;11.876;2023-02-26T10:21:08;2.83;;;2.10;;
14584;SDS011;7379;51.506;11.876;2023-02-26T10:23:40;2.53;;;2.00;;
14584;SDS011;7379;51.506;11.876;2023-02-26T10:26:12;3.27;;;2.00;;
14584;SDS011;7379;51.506;11.876;2023-02-26T10:28:49;3.07;;;1.90;;
14584;SDS011;7379;51.506;11.876;2023-02-26T10:31:25;4.53;;;2.00;;
14584;SDS011;7379;51.506;11.876;2023-02-26T10:33:59;3.20;;;2.00;;
14584;SDS011;7379;51.506;11.876;2023-02-26T10:36:38;3.10;;;2.23;;
14584;SDS011;7379;51.506;11.876;2023-02-26T10:39:15;2.97;;;1.90;;
14584;SDS011;7379;51.506;11.876;2023-02-26T10:41:49;2.70;;;1.90;;
14584;SDS011;7379;51.506;11.876;2023-02-26T10:44:19;2.50;;;1.90;;
14584;SDS011;7379;51.506;11.876;2023-02-26T10:46:55;1.77;;;1.63;;
14584;SDS011;7379;51.506;11.876;2023-02-26T10:49:32;3.80;;;1.83;;
14584;SDS011;7379;51.506;11.876;2023-02-26T10:52:11;1.77;;;1.67;;
14584;SDS011;7379;51.506;11.876;2023-02-26T10:54:43;3.33;;;1.90;;
14584;SDS011;7379;51.506;11.876;2023-02-26T10:57:20;2.40;;;1.80;;
14584;SDS011;7379;51.506;11.876;2023-02-26T10:59:50;1.93;;;1.67;;
14584;SDS011;7379;51.506;11.876;2023-02-26T11:02:30;2.33;;;1.60;;
14584;SDS011;7379;51.506;11.876;2023-02-26T11:05:00;2.50;;;1.90;;
14584;SDS011;7379;51.506;11.876;2023-02-26T11:07:28;1.80;;;1.70;;
14584;SDS011;7379;51.506;11.876;2023-02-26T11:09:56;2.20;;;1.70;;
14584;SDS011;7379;51.506;11.876;2023-02-26T11:12:25;6.63;;;1.90;;
14584;SDS011;7379;51.506;11.876;2023-02-26T11:14:52;2.43;;;1.60;;
14584;SDS011;7379;51.506;11.876;2023-02-26T11:17:20;3.00;;;1.77;;
14584;SDS011;7379;51.506;11.876;2023-02-26T11:19:55;2.43;;;1.67;;
14584;SDS011;7379;51.506;11.876;2023-02-26T11:22:24;2.00;;;1.70;;
14584;SDS011;7379;51.506;11.876;2023-02-26T11:24:53;1.80;;;1.60;;
14584;SDS011;7379;51.506;11.876;2023-02-26T11:27:23;2.23;;;1.77;;
14584;SDS011;7379;51.506;11.876;2023-02-26T11:29:52;3.07;;;1.90;;
14584;SDS011;7379;51.506;11.876;2023-02-26T11:32:22;2.67;;;1.90;;
14584;SDS011;7379;51.506;11.876;2023-02-26T11:34:56;2.43;;;1.80;;
14584;SDS011;7379;51.506;11.876;2023-02-26T11:37:23;2.37;;;1.90;;
14584;SDS011;7379;51.506;11.876;2023-02-26T11:39:55;1.60;;;1.50;;
14584;SDS011;7379;51.506;11.876;2023-02-26T11:42:23;2.27;;;1.70;;
14584;SDS011;7379;51.506;11.876;2023-02-26T11:44:51;4.20;;;1.70;;
14584;SDS011;7379;51.506;11.876;2023-02-26T11:47:20;1.87;;;1.70;;
14584;SDS011;7379;51.506;11.876;2023-02-26T11:49:49;2.00;;;1.77;;
14584;SDS011;7379;51.506;11.876;2023-02-26T11:52:21;2.03;;;1.80;;
14584;SDS011;7379;51.506;11.876;2023-02-26T11:54:59;2.00;;;1.80;;
14584;SDS011;7379;51.506;11.876;2023-02-26T11:57:28;2.40;;;1.60;;
14584;SDS011;7379;51.506;11.876;2023-02-26T11:59:56;2.17;;;1.70;;
14584;SDS011;7379;51.506;11.876;2023-02-26T12:02:25;2.00;;;1.50;;
14584;SDS011;7379;51.506;11.876;2023-02-26T12:04:59;2.63;;;1.80;;
14584;SDS011;7379;51.506;11.876;2023-02-26T12:07:29;1.97;;;1.60;;
14584;SDS011;7379;51.506;11.876;2023-02-26T12:09:56;2.20;;;1.70;;
14584;SDS011;7379;51.506;11.876;2023-02-26T12:12:26;1.70;;;1.57;;
14584;SDS011;7379;51.506;11.876;2023-02-26T12:15:14;2.30;;;1.60;;
14584;SDS011;7379;51.506;11.876;2023-02-26T12:17:52;2.50;;;1.63;;
14584;SDS011;7379;51.506;11.876;2023-02-26T12:20:34;2.53;;;1.60;;
14584;SDS011;7379;51.506;11.876;2023-02-26T12:23:11;2.37;;;1.80;;
14584;SDS011;7379;51.506;11.876;2023-02-26T12:29:01;1.70;;;1.60;;
14584;SDS011;7379;51.506;11.876;2023-02-26T12:31:49;1.90;;;1.63;;
14584;SDS011;7379;51.506;11.876;2023-02-26T12:34:39;1.80;;;1.70;;
14584;SDS011;7379;51.506;11.876;2023-02-26T12:37:27;2.60;;;1.57;;
14584;SDS011;7379;51.506;11.876;2023-02-26T12:40:07;1.80;;;1.50;;
14584;SDS011;7379;51.506;11.876;2023-02-26T12:42:44;1.67;;;1.50;;
14584;SDS011;7379;51.506;11.876;2023-02-26T12:45:23;1.50;;;1.40;;
14584;SDS011;7379;51.506;11.876;2023-02-26T12:48:04;2.57;;;1.70;;
14584;SDS011;7379;51.506;11.876;2023-02-26T12:50:46;1.60;;;1.50;;
14584;SDS011;7379;51.506;11.876;2023-02-26T12:53:32;1.83;;;1.70;;
14584;SDS011;7379;51.506;11.876;2023-02-26T12:56:22;2.53;;;1.70;;
14584;SDS011;7379;51.506;11.876;2023-02-26T12:59:13;3.53;;;1.70;;
14584;SDS011;7379;51.506;11.876;2023-02-26T13:01:54;1.70;;;1.60;;
14584;SDS011;7379;51.506;11.876;2023-02-26T13:07:48;2.57;;;1.50;;
14584;SDS011;7379;51.506;11.876;2023-02-26T13:10:24;2.10;;;1.50;;
14584;SDS011;7379;51.506;11.876;2023-02-26T13:13:02;2.07;;;1.50;;
14584;SDS011;7379;51.506;11.876;2023-02-26T13:15:46;2.03;;;1.60;;
14584;SDS011;7379;51.506;11.876;2023-02-26T13:18:34;2.33;;;1.70;;
14584;SDS011;7379;51.506;11.876;2023-02-26T13:21:08;2.10;;;1.60;;
14584;SDS011;7379;51.506;11.876;2023-02-26T13:23:39;2.40;;;1.63;;
14584;SDS011;7379;51.506;11.876;2023-02-26T13:26:14;2.90;;;1.80;;
14584;SDS011;7379;51.506;11.876;2023-02-26T13:28:44;2.03;;;1.60;;
14584;SDS011;7379;51.506;11.876;2023-02-26T13:31:19;2.90;;;1.70;;
14584;SDS011;7379;51.506;11.876;2023-02-26T13:33:49;2.63;;;1.70;;
14584;SDS011;7379;51.506;11.876;2023-02-26T13:36:16;3.43;;;1.63;;
14584;SDS011;7379;51.506;11.876;2023-02-26T13:38:51;3.47;;;1.87;;
14584;SDS011;7379;51.506;11.876;2023-02-26T13:41:30;1.90;;;1.70;;
14584;SDS011;7379;51.506;11.876;2023-02-26T13:44:08;2.97;;;1.80;;
14584;SDS011;7379;51.506;11.876;2023-02-26T13:46:47;2.53;;;2.00;;
14584;SDS011;7379;51.506;11.876;2023-02-26T13:49:26;1.80;;;1.63;;
14584;SDS011;7379;51.506;11.876;2023-02-26T13:51:58;2.57;;;1.60;;
14584;SDS011;7379;51.506;11.876;2023-02-26T13:54:32;3.03;;;1.60;;
14584;SDS011;7379;51.506;11.876;2023-02-26T13:57:07;2.73;;;1.77;;
14584;SDS011;7379;51.506;11.876;2023-02-26T13:59:51;2.27;;;1.83;;
14584;SDS011;7379;51.506;11.876;2023-02-26T14:02:30;4.13;;;1.80;;
14584;SDS011;7379;51.506;11.876;2023-02-26T14:08:07;3.83;;;1.80;;
14584;SDS011;7379;51.506;11.876;2023-02-26T14:10:53;2.13;;;1.70;;
14584;SDS011;7379;51.506;11.876;2023-02-26T14:13:23;1.57;;;1.47;;
14584;SDS011;7379;51.506;11.876;2023-02-26T14:15:59;3.60;;;1.87;;
14584;SDS011;7379;51.506;11.876;2023-02-26T14:18:35;3.07;;;1.87;;
14584;SDS011;7379;51.506;11.876;2023-02-26T14:23:54;1.67;;;1.50;;
14584;SDS011;7379;51.506;11.876;2023-02-26T14:26:23;2.40;;;1.77;;
14584;SDS011;7379;51.506;11.876;2023-02-26T14:28:56;2.10;;;1.90;;
14584;SDS011;7379;51.506;11.876;2023-02-26T14:31:49;2.87;;;1.70;;
14584;SDS011;7379;51.506;11.876;2023-02-26T14:34:20;2.10;;;1.60;;
14584;SDS011;7379;51.506;11.876;2023-02-26T14:36:50;3.03;;;1.70;;
14584;SDS011;7379;51.506;11.876;2023-02-26T14:39:23;2.17;;;1.67;;
14584;SDS011;7379;51.506;11.876;2023-02-26T14:41:54;2.53;;;1.90;;
14584;SDS011;7379;51.506;11.876;2023-02-26T14:44:25;2.87;;;1.80;;
14584;SDS011;7379;51.506;11.876;2023-02-26T14:46:56;2.57;;;1.80;;
14584;SDS011;7379;51.506;11.876;2023-02-26T14:49:25;1.80;;;1.67;;
14584;SDS011;7379;51.506;11.876;2023-02-26T14:58:04;3.30;;;1.90;;
14584;SDS011;7379;51.506;11.876;2023-02-26T15:00:43;2.03;;;1.50;;
14584;SDS011;7379;51.506;11.876;2023-02-26T15:03:22;2.13;;;1.60;;
14584;SDS011;7379;51.506;11.876;2023-02-26T15:06:03;1.93;;;1.73;;
14584;SDS011;7379;51.506;11.876;2023-02-26T15:08:44;2.87;;;1.93;;
14584;SDS011;7379;51.506;11.876;2023-02-26T15:11:29;1.87;;;1.77;;
14584;SDS011;7379;51.506;11.876;2023-02-26T15:14:17;1.80;;;1.67;;
14584;SDS011;7379;51.506;11.876;2023-02-26T15:17:04;2.53;;;2.00;;
14584;SDS011;7379;51.506;11.876;2023-02-26T15:19:48;2.60;;;1.80;;
14584;SDS011;7379;51.506;11.876;2023-02-26T15:22:34;2.97;;;1.90;;
14584;SDS011;7379;51.506;11.876;2023-02-26T15:25:17;1.80;;;1.70;;
14584;SDS011;7379;51.506;11.876;2023-02-26T15:27:49;2.83;;;2.10;;
14584;SDS011;7379;51.506;11.876;2023-02-26T15:30:17;2.23;;;1.70;;
14584;SDS011;7379;51.506;11.876;2023-02-26T15:32:44;2.40;;;1.83;;
14584;SDS011;7379;51.506;11.876;2023-02-26T15:35:15;3.00;;;1.80;;
14584;SDS011;7379;51.506;11.876;2023-02-26T15:37:47;3.87;;;1.90;;
14584;SDS011;7379;51.506;11.876;2023-02-26T15:40:15;1.80;;;1.70;;